Погода Китмансхупна 2 недели

Карас, Намибия

24 февраля-08 марта
  • 24февраля
    Сегодня
    +14°
    +38°
    Ясно и безоблачно
    ВремяПогодаТемператураВлажностьДавлениеВетер, м/сВероятность осадков
    02:00Ясно и безоблачно+24°C32 %679 мм1.9 м/с5 %
    05:00Ясно и безоблачно+21°C36 %679 мм2.5 м/с5 %
    08:00Ясно и безоблачно+22°C34 %680 мм2.3 м/с5 %
    11:00Ясно и безоблачно+30°C14 %681 мм2.0 м/с5 %
    14:00Ясно и безоблачно+37°C9 %680 мм2.3 м/с5 %
    17:00Ясно и безоблачно+38°C6 %679 мм6.6 м/с5 %
    20:00Практически безоблачно+28°C23 %680 мм6.7 м/с5 %
    23:00Практически безоблачно+23°C39 %682 мм5.9 м/с5 %
  • 25февраля
    Воскресенье
    +18°
    +33°
    Ясно и безоблачно
    ВремяПогодаТемператураВлажностьДавлениеВетер, м/сВероятность осадков
    02:00Практически безоблачно+18°C57 %682 мм4.2 м/с5 %
    05:00Ясно и безоблачно+16°C74 %681 мм4.4 м/с5 %
    08:00Ясно и безоблачно+16°C76 %683 мм4.3 м/с5 %
    11:00Ясно и безоблачно+23°C33 %684 мм2.4 м/с5 %
    14:00Ясно и безоблачно+30°C16 %683 мм2.4 м/с5 %
    17:00Ясно и безоблачно+33°C8 %682 мм3.7 м/с5 %
    20:00Ясно и безоблачно+29°C24 %682 мм5.1 м/с5 %
    23:00Ясно и безоблачно+25°C35 %682 мм5.1 м/с5 %
  • 26февраля
    Понедельник
    +21°
    +36°
    Ясно и безоблачно
    ВремяПогодаТемператураВлажностьДавлениеВетер, м/сВероятность осадков
    02:00Ясно и безоблачно+21°C40 %681 мм2.7 м/с5 %
    05:00Ясно и безоблачно+18°C43 %681 мм1.5 м/с5 %
    08:00Ясно и безоблачно+20°C35 %682 мм3.1 м/с5 %
    11:00Ясно и безоблачно+28°C19 %683 мм3.3 м/с5 %
    14:00Ясно и безоблачно+34°C11 %682 мм2.6 м/с5 %
    17:00Ясно и безоблачно+36°C9 %680 мм1.6 м/с5 %
    20:00Ясно и безоблачно+33°C10 %680 мм2.5 м/с5 %
    23:00Ясно и безоблачно+29°C13 %680 мм3.8 м/с5 %
  • 27февраля
    Вторник
    +23°
    +39°
    Ясно и безоблачно
    ВремяПогодаТемператураВлажностьДавлениеВетер, м/сВероятность осадков
    02:00Ясно и безоблачно+25°C18 %679 мм3.8 м/с5 %
    05:00Ясно и безоблачно+22°C19 %679 мм4.0 м/с5 %
    08:00Ясно и безоблачно+24°C16 %680 мм4.1 м/с4 %
    11:00Ясно и безоблачно+32°C9 %682 мм4.5 м/с4 %
    14:00Ясно и безоблачно+37°C7 %681 мм4.3 м/с3 %
    17:00Ясно и безоблачно+38°C8 %679 мм2.0 м/с5 %
    20:00Ясно и безоблачно+35°C10 %678 мм2.7 м/с6 %
    23:00Ясно и безоблачно+31°C22 %681 мм5.6 м/с5 %
  • 28февраля
    Среда
    +22°
    +40°
    Ясно и безоблачно
    ВремяПогодаТемператураВлажностьДавлениеВетер, м/сВероятность осадков
    02:00Ясно и безоблачно+27°C26 %679 мм3.5 м/с3 %
    05:00Ясно и безоблачно+24°C29 %679 мм3.1 м/с5 %
    08:00Ясно и безоблачно+26°C23 %680 мм3.5 м/с5 %
    11:00Ясно и безоблачно+35°C11 %681 мм3.3 м/с10 %
    14:00Ясно и безоблачно+39°C10 %680 мм4.2 м/с12 %
    17:00Ясно и безоблачно+39°C11 %678 мм3.0 м/с12 %
    20:00Ясно и безоблачно+34°C22 %680 мм4.5 м/с28 %
    23:00Практически безоблачно+29°C19 %680 мм4.2 м/с16 %
Мы используем cookies
Соглашаюсь